sensor_id;sensor_type;location;lat;lon;timestamp;P1;durP1;ratioP1;P2;durP2;ratioP2
25123;SDS011;13104;51.030;4.686;2022-10-19T00:00:30;15.30;;;5.55;;
25123;SDS011;13104;51.030;4.686;2022-10-19T00:02:56;24.98;;;5.80;;
25123;SDS011;13104;51.030;4.686;2022-10-19T00:05:22;15.57;;;5.65;;
25123;SDS011;13104;51.030;4.686;2022-10-19T00:07:48;11.23;;;5.50;;
25123;SDS011;13104;51.030;4.686;2022-10-19T00:10:14;12.55;;;5.07;;
25123;SDS011;13104;51.030;4.686;2022-10-19T00:12:41;14.70;;;5.93;;
25123;SDS011;13104;51.030;4.686;2022-10-19T00:15:07;17.13;;;6.00;;
25123;SDS011;13104;51.030;4.686;2022-10-19T00:17:34;13.35;;;5.00;;
25123;SDS011;13104;51.030;4.686;2022-10-19T00:20:00;14.18;;;5.70;;
25123;SDS011;13104;51.030;4.686;2022-10-19T00:22:26;13.60;;;4.97;;
25123;SDS011;13104;51.030;4.686;2022-10-19T00:24:54;12.18;;;5.22;;
25123;SDS011;13104;51.030;4.686;2022-10-19T00:27:20;16.27;;;5.40;;
25123;SDS011;13104;51.030;4.686;2022-10-19T00:29:46;36.25;;;5.88;;
25123;SDS011;13104;51.030;4.686;2022-10-19T00:32:13;17.50;;;5.30;;
25123;SDS011;13104;51.030;4.686;2022-10-19T00:34:39;16.77;;;5.13;;
25123;SDS011;13104;51.030;4.686;2022-10-19T00:37:05;15.07;;;4.95;;
25123;SDS011;13104;51.030;4.686;2022-10-19T00:39:31;22.52;;;5.20;;
25123;SDS011;13104;51.030;4.686;2022-10-19T00:41:57;14.75;;;4.80;;
25123;SDS011;13104;51.030;4.686;2022-10-19T00:46:59;13.50;;;4.80;;
25123;SDS011;13104;51.030;4.686;2022-10-19T00:49:30;13.88;;;4.47;;
25123;SDS011;13104;51.030;4.686;2022-10-19T00:52:02;26.02;;;5.55;;
25123;SDS011;13104;51.030;4.686;2022-10-19T00:54:30;14.00;;;4.35;;
25123;SDS011;13104;51.030;4.686;2022-10-19T00:56:57;14.55;;;4.25;;
25123;SDS011;13104;51.030;4.686;2022-10-19T00:59:23;16.52;;;4.90;;
25123;SDS011;13104;51.030;4.686;2022-10-19T01:01:50;14.60;;;4.72;;
25123;SDS011;13104;51.030;4.686;2022-10-19T01:04:17;14.48;;;4.72;;
25123;SDS011;13104;51.030;4.686;2022-10-19T01:06:44;14.70;;;4.47;;
25123;SDS011;13104;51.030;4.686;2022-10-19T01:09:10;9.00;;;4.50;;
25123;SDS011;13104;51.030;4.686;2022-10-19T01:14:27;14.38;;;4.55;;
25123;SDS011;13104;51.030;4.686;2022-10-19T01:22:21;11.40;;;4.05;;
25123;SDS011;13104;51.030;4.686;2022-10-19T01:24:55;23.95;;;5.40;;
25123;SDS011;13104;51.030;4.686;2022-10-19T01:27:32;13.30;;;4.68;;
25123;SDS011;13104;51.030;4.686;2022-10-19T01:32:53;15.90;;;4.85;;
25123;SDS011;13104;51.030;4.686;2022-10-19T01:38:32;18.27;;;4.63;;
25123;SDS011;13104;51.030;4.686;2022-10-19T01:43:36;9.77;;;4.18;;
25123;SDS011;13104;51.030;4.686;2022-10-19T01:46:10;10.30;;;4.47;;
25123;SDS011;13104;51.030;4.686;2022-10-19T01:48:37;13.13;;;4.00;;
25123;SDS011;13104;51.030;4.686;2022-10-19T01:51:12;16.05;;;4.85;;
25123;SDS011;13104;51.030;4.686;2022-10-19T01:53:43;12.70;;;4.72;;
25123;SDS011;13104;51.030;4.686;2022-10-19T01:56:11;14.48;;;4.53;;
25123;SDS011;13104;51.030;4.686;2022-10-19T01:58:37;21.13;;;4.65;;
25123;SDS011;13104;51.030;4.686;2022-10-19T02:01:05;15.52;;;4.25;;
25123;SDS011;13104;51.030;4.686;2022-10-19T02:03:33;11.20;;;4.53;;
25123;SDS011;13104;51.030;4.686;2022-10-19T02:05:59;16.55;;;4.35;;
25123;SDS011;13104;51.030;4.686;2022-10-19T02:08:28;14.93;;;4.20;;
25123;SDS011;13104;51.030;4.686;2022-10-19T02:10:55;12.35;;;4.32;;
25123;SDS011;13104;51.030;4.686;2022-10-19T02:13:22;20.20;;;4.97;;
25123;SDS011;13104;51.030;4.686;2022-10-19T02:15:49;12.95;;;4.40;;
25123;SDS011;13104;51.030;4.686;2022-10-19T02:18:17;15.02;;;4.65;;
25123;SDS011;13104;51.030;4.686;2022-10-19T02:20:45;13.05;;;4.78;;
25123;SDS011;13104;51.030;4.686;2022-10-19T02:23:12;14.15;;;4.45;;
25123;SDS011;13104;51.030;4.686;2022-10-19T02:25:38;14.05;;;4.45;;
25123;SDS011;13104;51.030;4.686;2022-10-19T02:28:05;12.18;;;4.43;;
25123;SDS011;13104;51.030;4.686;2022-10-19T02:30:31;14.55;;;4.13;;
25123;SDS011;13104;51.030;4.686;2022-10-19T02:32:57;9.27;;;3.95;;
25123;SDS011;13104;51.030;4.686;2022-10-19T02:35:24;11.93;;;4.70;;
25123;SDS011;13104;51.030;4.686;2022-10-19T02:37:50;13.57;;;4.68;;
25123;SDS011;13104;51.030;4.686;2022-10-19T02:40:16;17.33;;;4.07;;
25123;SDS011;13104;51.030;4.686;2022-10-19T02:42:50;7.80;;;4.28;;
25123;SDS011;13104;51.030;4.686;2022-10-19T02:45:21;14.10;;;4.18;;
25123;SDS011;13104;51.030;4.686;2022-10-19T02:47:49;13.27;;;4.32;;
25123;SDS011;13104;51.030;4.686;2022-10-19T02:50:17;13.13;;;4.72;;
25123;SDS011;13104;51.030;4.686;2022-10-19T02:52:44;13.43;;;4.80;;
25123;SDS011;13104;51.030;4.686;2022-10-19T02:55:10;15.43;;;5.32;;
25123;SDS011;13104;51.030;4.686;2022-10-19T02:57:37;13.30;;;4.90;;
25123;SDS011;13104;51.030;4.686;2022-10-19T03:00:04;12.93;;;5.22;;
25123;SDS011;13104;51.030;4.686;2022-10-19T03:02:30;13.02;;;4.82;;
25123;SDS011;13104;51.030;4.686;2022-10-19T03:04:56;15.88;;;5.50;;
25123;SDS011;13104;51.030;4.686;2022-10-19T03:07:22;18.50;;;5.30;;
25123;SDS011;13104;51.030;4.686;2022-10-19T03:09:49;16.50;;;5.70;;
25123;SDS011;13104;51.030;4.686;2022-10-19T03:12:15;12.88;;;5.38;;
25123;SDS011;13104;51.030;4.686;2022-10-19T03:14:41;16.35;;;5.78;;
25123;SDS011;13104;51.030;4.686;2022-10-19T03:17:08;13.18;;;6.25;;
25123;SDS011;13104;51.030;4.686;2022-10-19T03:19:34;17.92;;;6.32;;
25123;SDS011;13104;51.030;4.686;2022-10-19T03:22:00;18.85;;;6.18;;
25123;SDS011;13104;51.030;4.686;2022-10-19T03:24:26;12.38;;;5.85;;
25123;SDS011;13104;51.030;4.686;2022-10-19T03:26:54;16.48;;;5.72;;
25123;SDS011;13104;51.030;4.686;2022-10-19T03:29:20;16.88;;;6.03;;
25123;SDS011;13104;51.030;4.686;2022-10-19T03:31:46;16.00;;;6.53;;
25123;SDS011;13104;51.030;4.686;2022-10-19T03:34:12;14.15;;;6.10;;
25123;SDS011;13104;51.030;4.686;2022-10-19T03:36:39;14.30;;;6.18;;
25123;SDS011;13104;51.030;4.686;2022-10-19T03:39:08;13.68;;;5.72;;
25123;SDS011;13104;51.030;4.686;2022-10-19T03:41:35;15.23;;;6.63;;
25123;SDS011;13104;51.030;4.686;2022-10-19T03:44:02;16.80;;;6.53;;
25123;SDS011;13104;51.030;4.686;2022-10-19T03:46:28;18.38;;;5.80;;
25123;SDS011;13104;51.030;4.686;2022-10-19T03:48:54;18.33;;;4.88;;
25123;SDS011;13104;51.030;4.686;2022-10-19T03:51:21;16.73;;;5.35;;
25123;SDS011;13104;51.030;4.686;2022-10-19T03:54:08;15.70;;;5.97;;
25123;SDS011;13104;51.030;4.686;2022-10-19T03:56:36;14.52;;;5.63;;
25123;SDS011;13104;51.030;4.686;2022-10-19T03:59:03;19.40;;;5.47;;
25123;SDS011;13104;51.030;4.686;2022-10-19T04:01:31;14.45;;;5.40;;
25123;SDS011;13104;51.030;4.686;2022-10-19T04:03:59;16.25;;;5.53;;
25123;SDS011;13104;51.030;4.686;2022-10-19T04:06:26;15.98;;;6.68;;
25123;SDS011;13104;51.030;4.686;2022-10-19T04:08:52;15.77;;;5.85;;
25123;SDS011;13104;51.030;4.686;2022-10-19T04:11:22;13.65;;;6.32;;
25123;SDS011;13104;51.030;4.686;2022-10-19T04:13:48;13.88;;;5.93;;
25123;SDS011;13104;51.030;4.686;2022-10-19T04:16:14;17.33;;;6.35;;
25123;SDS011;13104;51.030;4.686;2022-10-19T04:18:41;18.83;;;6.22;;
25123;SDS011;13104;51.030;4.686;2022-10-19T04:21:17;14.38;;;6.50;;
25123;SDS011;13104;51.030;4.686;2022-10-19T04:23:44;16.70;;;6.50;;
25123;SDS011;13104;51.030;4.686;2022-10-19T04:26:10;14.70;;;6.18;;
25123;SDS011;13104;51.030;4.686;2022-10-19T04:28:36;16.35;;;6.03;;
25123;SDS011;13104;51.030;4.686;2022-10-19T04:31:04;13.07;;;6.32;;
25123;SDS011;13104;51.030;4.686;2022-10-19T04:33:30;15.85;;;6.57;;
25123;SDS011;13104;51.030;4.686;2022-10-19T04:35:57;18.20;;;6.22;;
25123;SDS011;13104;51.030;4.686;2022-10-19T04:38:23;15.20;;;6.20;;
25123;SDS011;13104;51.030;4.686;2022-10-19T04:40:49;19.20;;;6.32;;
25123;SDS011;13104;51.030;4.686;2022-10-19T04:43:16;15.18;;;7.03;;
25123;SDS011;13104;51.030;4.686;2022-10-19T04:45:42;15.52;;;7.10;;
25123;SDS011;13104;51.030;4.686;2022-10-19T04:48:08;18.23;;;6.97;;
25123;SDS011;13104;51.030;4.686;2022-10-19T04:50:34;14.05;;;6.50;;
25123;SDS011;13104;51.030;4.686;2022-10-19T04:53:00;13.20;;;6.35;;
25123;SDS011;13104;51.030;4.686;2022-10-19T04:55:26;15.15;;;6.95;;
25123;SDS011;13104;51.030;4.686;2022-10-19T04:57:52;18.30;;;7.05;;
25123;SDS011;13104;51.030;4.686;2022-10-19T05:00:18;14.05;;;7.05;;
25123;SDS011;13104;51.030;4.686;2022-10-19T05:02:45;15.77;;;6.82;;
25123;SDS011;13104;51.030;4.686;2022-10-19T05:05:11;19.42;;;7.22;;
25123;SDS011;13104;51.030;4.686;2022-10-19T05:07:37;18.15;;;7.38;;
25123;SDS011;13104;51.030;4.686;2022-10-19T05:10:05;18.00;;;7.50;;
25123;SDS011;13104;51.030;4.686;2022-10-19T05:12:31;16.55;;;7.82;;
25123;SDS011;13104;51.030;4.686;2022-10-19T05:14:58;22.75;;;7.65;;
25123;SDS011;13104;51.030;4.686;2022-10-19T05:17:25;18.88;;;7.38;;
25123;SDS011;13104;51.030;4.686;2022-10-19T05:19:51;19.90;;;7.43;;
25123;SDS011;13104;51.030;4.686;2022-10-19T05:22:17;21.45;;;8.38;;
25123;SDS011;13104;51.030;4.686;2022-10-19T05:24:43;20.23;;;8.18;;
25123;SDS011;13104;51.030;4.686;2022-10-19T05:27:09;16.98;;;8.38;;
25123;SDS011;13104;51.030;4.686;2022-10-19T05:29:35;15.27;;;7.43;;
25123;SDS011;13104;51.030;4.686;2022-10-19T05:32:01;16.90;;;7.40;;
25123;SDS011;13104;51.030;4.686;2022-10-19T05:34:27;16.52;;;7.95;;
25123;SDS011;13104;51.030;4.686;2022-10-19T05:36:54;10.98;;;6.68;;
25123;SDS011;13104;51.030;4.686;2022-10-19T05:39:21;20.25;;;7.68;;
25123;SDS011;13104;51.030;4.686;2022-10-19T05:41:47;25.50;;;8.05;;
25123;SDS011;13104;51.030;4.686;2022-10-19T05:44:14;14.70;;;7.40;;
25123;SDS011;13104;51.030;4.686;2022-10-19T05:46:41;23.27;;;6.97;;
25123;SDS011;13104;51.030;4.686;2022-10-19T05:49:08;16.60;;;8.18;;
25123;SDS011;13104;51.030;4.686;2022-10-19T05:51:35;20.63;;;7.82;;
25123;SDS011;13104;51.030;4.686;2022-10-19T05:54:01;22.80;;;9.27;;
25123;SDS011;13104;51.030;4.686;2022-10-19T05:56:28;20.05;;;9.40;;
25123;SDS011;13104;51.030;4.686;2022-10-19T05:58:55;21.15;;;10.00;;
25123;SDS011;13104;51.030;4.686;2022-10-19T06:01:22;23.80;;;11.02;;
25123;SDS011;13104;51.030;4.686;2022-10-19T06:03:51;20.88;;;10.82;;
25123;SDS011;13104;51.030;4.686;2022-10-19T06:06:18;27.08;;;12.43;;
25123;SDS011;13104;51.030;4.686;2022-10-19T06:08:44;25.65;;;12.93;;
25123;SDS011;13104;51.030;4.686;2022-10-19T06:11:11;32.72;;;12.70;;
25123;SDS011;13104;51.030;4.686;2022-10-19T06:13:38;28.20;;;13.55;;
25123;SDS011;13104;51.030;4.686;2022-10-19T06:16:05;28.15;;;13.63;;
25123;SDS011;13104;51.030;4.686;2022-10-19T06:18:32;29.02;;;14.82;;
25123;SDS011;13104;51.030;4.686;2022-10-19T06:21:01;68.78;;;17.38;;
25123;SDS011;13104;51.030;4.686;2022-10-19T06:23:28;40.38;;;14.43;;
25123;SDS011;13104;51.030;4.686;2022-10-19T06:25:54;38.08;;;15.82;;
25123;SDS011;13104;51.030;4.686;2022-10-19T06:28:21;35.92;;;15.15;;
25123;SDS011;13104;51.030;4.686;2022-10-19T06:30:47;35.80;;;15.05;;
25123;SDS011;13104;51.030;4.686;2022-10-19T06:33:13;27.25;;;15.35;;
25123;SDS011;13104;51.030;4.686;2022-10-19T06:35:39;34.45;;;15.88;;
25123;SDS011;13104;51.030;4.686;2022-10-19T06:38:09;32.65;;;15.07;;
25123;SDS011;13104;51.030;4.686;2022-10-19T06:40:37;31.23;;;14.82;;
25123;SDS011;13104;51.030;4.686;2022-10-19T06:43:04;34.75;;;15.63;;
25123;SDS011;13104;51.030;4.686;2022-10-19T06:45:30;31.10;;;16.45;;
25123;SDS011;13104;51.030;4.686;2022-10-19T06:47:56;32.45;;;16.85;;
25123;SDS011;13104;51.030;4.686;2022-10-19T06:50:22;38.53;;;17.48;;
25123;SDS011;13104;51.030;4.686;2022-10-19T06:52:48;36.60;;;16.60;;
25123;SDS011;13104;51.030;4.686;2022-10-19T06:55:14;30.90;;;17.23;;
25123;SDS011;13104;51.030;4.686;2022-10-19T06:57:42;38.83;;;17.92;;
25123;SDS011;13104;51.030;4.686;2022-10-19T07:00:09;38.83;;;19.10;;
25123;SDS011;13104;51.030;4.686;2022-10-19T07:02:35;41.00;;;19.17;;
25123;SDS011;13104;51.030;4.686;2022-10-19T07:05:02;40.30;;;20.27;;
25123;SDS011;13104;51.030;4.686;2022-10-19T07:07:28;37.70;;;19.27;;
25123;SDS011;13104;51.030;4.686;2022-10-19T07:09:54;35.53;;;18.48;;
25123;SDS011;13104;51.030;4.686;2022-10-19T07:12:20;36.13;;;21.10;;
25123;SDS011;13104;51.030;4.686;2022-10-19T07:14:46;47.25;;;20.15;;
25123;SDS011;13104;51.030;4.686;2022-10-19T07:17:12;38.10;;;19.88;;
25123;SDS011;13104;51.030;4.686;2022-10-19T07:19:38;37.08;;;18.60;;
25123;SDS011;13104;51.030;4.686;2022-10-19T07:22:05;48.15;;;19.25;;
25123;SDS011;13104;51.030;4.686;2022-10-19T07:24:31;36.97;;;19.65;;
25123;SDS011;13104;51.030;4.686;2022-10-19T07:26:57;36.65;;;18.90;;
25123;SDS011;13104;51.030;4.686;2022-10-19T07:29:23;36.03;;;19.17;;
25123;SDS011;13104;51.030;4.686;2022-10-19T07:31:49;41.60;;;19.17;;
25123;SDS011;13104;51.030;4.686;2022-10-19T07:34:15;35.50;;;19.05;;
25123;SDS011;13104;51.030;4.686;2022-10-19T07:36:43;42.38;;;19.42;;
25123;SDS011;13104;51.030;4.686;2022-10-19T07:39:10;39.10;;;18.63;;
25123;SDS011;13104;51.030;4.686;2022-10-19T07:41:36;38.05;;;18.88;;
25123;SDS011;13104;51.030;4.686;2022-10-19T07:44:03;51.20;;;18.45;;
25123;SDS011;13104;51.030;4.686;2022-10-19T07:46:30;43.58;;;18.33;;
25123;SDS011;13104;51.030;4.686;2022-10-19T07:48:58;35.83;;;17.45;;
25123;SDS011;13104;51.030;4.686;2022-10-19T07:51:25;35.63;;;17.83;;
25123;SDS011;13104;51.030;4.686;2022-10-19T07:53:51;259.25;;;27.73;;
25123;SDS011;13104;51.030;4.686;2022-10-19T07:56:19;69.70;;;18.73;;
25123;SDS011;13104;51.030;4.686;2022-10-19T07:58:46;35.70;;;16.60;;
25123;SDS011;13104;51.030;4.686;2022-10-19T08:01:13;34.60;;;15.65;;
25123;SDS011;13104;51.030;4.686;2022-10-19T08:03:40;44.20;;;21.27;;
25123;SDS011;13104;51.030;4.686;2022-10-19T08:06:08;56.70;;;26.10;;
25123;SDS011;13104;51.030;4.686;2022-10-19T08:08:34;34.47;;;14.45;;
25123;SDS011;13104;51.030;4.686;2022-10-19T08:11:11;30.83;;;17.30;;
25123;SDS011;13104;51.030;4.686;2022-10-19T08:13:38;27.63;;;14.77;;
25123;SDS011;13104;51.030;4.686;2022-10-19T08:16:04;30.25;;;14.27;;
25123;SDS011;13104;51.030;4.686;2022-10-19T08:18:31;31.20;;;12.95;;
25123;SDS011;13104;51.030;4.686;2022-10-19T08:20:57;33.08;;;14.30;;
25123;SDS011;13104;51.030;4.686;2022-10-19T08:23:27;31.60;;;13.02;;
25123;SDS011;13104;51.030;4.686;2022-10-19T08:25:56;24.63;;;13.32;;
25123;SDS011;13104;51.030;4.686;2022-10-19T08:28:23;28.88;;;12.45;;
25123;SDS011;13104;51.030;4.686;2022-10-19T08:30:49;25.95;;;12.20;;
25123;SDS011;13104;51.030;4.686;2022-10-19T08:33:16;207.27;;;25.50;;
25123;SDS011;13104;51.030;4.686;2022-10-19T08:35:42;41.92;;;14.80;;
25123;SDS011;13104;51.030;4.686;2022-10-19T08:38:08;46.83;;;14.77;;
25123;SDS011;13104;51.030;4.686;2022-10-19T08:40:34;77.60;;;17.77;;
25123;SDS011;13104;51.030;4.686;2022-10-19T08:45:36;25.90;;;12.05;;
25123;SDS011;13104;51.030;4.686;2022-10-19T08:50:36;26.08;;;11.57;;
25123;SDS011;13104;51.030;4.686;2022-10-19T08:53:04;24.50;;;11.18;;
25123;SDS011;13104;51.030;4.686;2022-10-19T08:55:43;26.40;;;11.98;;
25123;SDS011;13104;51.030;4.686;2022-10-19T09:03:21;29.50;;;7.50;;
25123;SDS011;13104;51.030;4.686;2022-10-19T09:08:14;18.55;;;7.85;;
25123;SDS011;13104;51.030;4.686;2022-10-19T09:10:42;25.30;;;5.68;;
25123;SDS011;13104;51.030;4.686;2022-10-19T09:15:53;16.45;;;6.43;;
25123;SDS011;13104;51.030;4.686;2022-10-19T09:18:26;22.27;;;5.15;;
25123;SDS011;13104;51.030;4.686;2022-10-19T09:21:01;13.77;;;6.03;;
25123;SDS011;13104;51.030;4.686;2022-10-19T09:23:29;21.58;;;8.10;;
25123;SDS011;13104;51.030;4.686;2022-10-19T09:25:58;14.63;;;5.78;;
25123;SDS011;13104;51.030;4.686;2022-10-19T09:30:53;15.50;;;4.40;;
25123;SDS011;13104;51.030;4.686;2022-10-19T09:33:23;22.95;;;6.40;;
25123;SDS011;13104;51.030;4.686;2022-10-19T09:35:51;22.48;;;4.88;;
25123;SDS011;13104;51.030;4.686;2022-10-19T09:38:19;26.27;;;6.28;;
25123;SDS011;13104;51.030;4.686;2022-10-19T09:40:48;19.23;;;5.20;;
25123;SDS011;13104;51.030;4.686;2022-10-19T09:43:14;20.73;;;5.80;;
25123;SDS011;13104;51.030;4.686;2022-10-19T09:45:59;12.60;;;5.38;;
25123;SDS011;13104;51.030;4.686;2022-10-19T09:48:30;18.80;;;5.80;;
25123;SDS011;13104;51.030;4.686;2022-10-19T09:51:00;14.73;;;5.43;;
25123;SDS011;13104;51.030;4.686;2022-10-19T09:53:26;17.65;;;6.10;;
25123;SDS011;13104;51.030;4.686;2022-10-19T09:55:57;17.52;;;6.20;;
25123;SDS011;13104;51.030;4.686;2022-10-19T09:58:24;15.05;;;5.60;;
25123;SDS011;13104;51.030;4.686;2022-10-19T10:00:51;19.08;;;5.80;;
25123;SDS011;13104;51.030;4.686;2022-10-19T10:03:23;18.52;;;5.50;;
25123;SDS011;13104;51.030;4.686;2022-10-19T10:05:49;17.73;;;5.70;;
25123;SDS011;13104;51.030;4.686;2022-10-19T10:08:17;21.95;;;4.88;;
25123;SDS011;13104;51.030;4.686;2022-10-19T10:10:45;15.93;;;4.90;;
25123;SDS011;13104;51.030;4.686;2022-10-19T10:13:16;13.80;;;4.53;;
25123;SDS011;13104;51.030;4.686;2022-10-19T10:15:44;17.38;;;5.35;;
25123;SDS011;13104;51.030;4.686;2022-10-19T10:18:14;18.33;;;5.13;;
25123;SDS011;13104;51.030;4.686;2022-10-19T10:23:26;15.00;;;4.05;;
25123;SDS011;13104;51.030;4.686;2022-10-19T10:25:54;11.35;;;5.10;;
25123;SDS011;13104;51.030;4.686;2022-10-19T10:28:21;13.20;;;5.28;;
25123;SDS011;13104;51.030;4.686;2022-10-19T10:30:51;17.90;;;5.72;;
25123;SDS011;13104;51.030;4.686;2022-10-19T10:33:20;21.30;;;5.68;;
25123;SDS011;13104;51.030;4.686;2022-10-19T10:35:51;15.30;;;5.20;;
25123;SDS011;13104;51.030;4.686;2022-10-19T10:38:25;18.52;;;5.22;;
25123;SDS011;13104;51.030;4.686;2022-10-19T10:40:52;22.77;;;6.53;;
25123;SDS011;13104;51.030;4.686;2022-10-19T10:43:19;13.70;;;5.53;;
25123;SDS011;13104;51.030;4.686;2022-10-19T10:45:49;15.70;;;5.40;;
25123;SDS011;13104;51.030;4.686;2022-10-19T10:48:26;15.60;;;5.43;;
25123;SDS011;13104;51.030;4.686;2022-10-19T10:50:53;19.67;;;5.90;;
25123;SDS011;13104;51.030;4.686;2022-10-19T10:56:01;18.00;;;6.28;;
25123;SDS011;13104;51.030;4.686;2022-10-19T11:00:55;18.02;;;6.38;;
25123;SDS011;13104;51.030;4.686;2022-10-19T11:03:24;17.58;;;6.30;;
25123;SDS011;13104;51.030;4.686;2022-10-19T11:05:59;16.20;;;5.68;;
25123;SDS011;13104;51.030;4.686;2022-10-19T11:11:00;18.35;;;6.13;;
25123;SDS011;13104;51.030;4.686;2022-10-19T11:13:32;14.80;;;5.90;;
25123;SDS011;13104;51.030;4.686;2022-10-19T11:16:03;17.17;;;6.20;;
25123;SDS011;13104;51.030;4.686;2022-10-19T11:18:33;19.42;;;6.05;;
25123;SDS011;13104;51.030;4.686;2022-10-19T11:21:03;22.50;;;6.88;;
25123;SDS011;13104;51.030;4.686;2022-10-19T11:26:25;19.73;;;6.50;;
25123;SDS011;13104;51.030;4.686;2022-10-19T11:29:12;24.02;;;7.30;;
25123;SDS011;13104;51.030;4.686;2022-10-19T11:37:02;20.98;;;7.25;;
25123;SDS011;13104;51.030;4.686;2022-10-19T11:49:51;20.98;;;7.10;;
25123;SDS011;13104;51.030;4.686;2022-10-19T11:52:21;15.70;;;6.93;;
25123;SDS011;13104;51.030;4.686;2022-10-19T12:00:45;22.27;;;8.60;;
25123;SDS011;13104;51.030;4.686;2022-10-19T12:03:17;18.75;;;6.90;;
25123;SDS011;13104;51.030;4.686;2022-10-19T12:13:39;18.45;;;7.88;;
25123;SDS011;13104;51.030;4.686;2022-10-19T12:16:06;16.38;;;7.78;;
25123;SDS011;13104;51.030;4.686;2022-10-19T12:18:34;23.92;;;7.95;;
25123;SDS011;13104;51.030;4.686;2022-10-19T12:21:03;26.08;;;7.50;;
25123;SDS011;13104;51.030;4.686;2022-10-19T12:23:39;19.38;;;8.27;;
25123;SDS011;13104;51.030;4.686;2022-10-19T12:26:08;21.13;;;7.78;;
25123;SDS011;13104;51.030;4.686;2022-10-19T12:28:36;17.55;;;7.35;;
25123;SDS011;13104;51.030;4.686;2022-10-19T12:31:03;21.73;;;6.68;;
25123;SDS011;13104;51.030;4.686;2022-10-19T12:33:32;23.73;;;12.27;;
25123;SDS011;13104;51.030;4.686;2022-10-19T12:38:37;22.35;;;7.40;;
25123;SDS011;13104;51.030;4.686;2022-10-19T12:51:49;17.50;;;7.55;;
25123;SDS011;13104;51.030;4.686;2022-10-19T12:54:19;29.52;;;18.35;;
25123;SDS011;13104;51.030;4.686;2022-10-19T12:56:47;20.08;;;8.85;;
25123;SDS011;13104;51.030;4.686;2022-10-19T12:59:24;29.88;;;7.82;;
25123;SDS011;13104;51.030;4.686;2022-10-19T13:01:51;13.50;;;6.60;;
25123;SDS011;13104;51.030;4.686;2022-10-19T13:04:28;20.52;;;9.10;;
25123;SDS011;13104;51.030;4.686;2022-10-19T13:14:48;19.42;;;6.40;;
25123;SDS011;13104;51.030;4.686;2022-10-19T13:22:50;17.75;;;6.85;;
25123;SDS011;13104;51.030;4.686;2022-10-19T13:25:21;24.83;;;9.82;;
25123;SDS011;13104;51.030;4.686;2022-10-19T13:27:55;27.17;;;12.55;;
25123;SDS011;13104;51.030;4.686;2022-10-19T13:38:34;19.63;;;7.57;;
25123;SDS011;13104;51.030;4.686;2022-10-19T13:43:36;24.33;;;7.07;;
25123;SDS011;13104;51.030;4.686;2022-10-19T13:46:16;17.58;;;6.47;;
25123;SDS011;13104;51.030;4.686;2022-10-19T13:53:51;18.02;;;6.10;;
25123;SDS011;13104;51.030;4.686;2022-10-19T13:56:28;16.40;;;6.25;;
25123;SDS011;13104;51.030;4.686;2022-10-19T14:01:45;12.00;;;5.63;;
25123;SDS011;13104;51.030;4.686;2022-10-19T14:04:17;17.50;;;6.22;;
25123;SDS011;13104;51.030;4.686;2022-10-19T14:11:43;19.02;;;6.50;;
25123;SDS011;13104;51.030;4.686;2022-10-19T14:16:58;13.52;;;6.45;;
25123;SDS011;13104;51.030;4.686;2022-10-19T14:19:24;16.35;;;6.93;;
25123;SDS011;13104;51.030;4.686;2022-10-19T14:21:54;15.65;;;7.55;;
25123;SDS011;13104;51.030;4.686;2022-10-19T14:24:26;11.88;;;7.00;;
25123;SDS011;13104;51.030;4.686;2022-10-19T14:26:52;17.52;;;8.13;;
25123;SDS011;13104;51.030;4.686;2022-10-19T14:29:29;15.79;;;8.23;;
25123;SDS011;13104;51.030;4.686;2022-10-19T14:31:57;18.92;;;8.20;;
25123;SDS011;13104;51.030;4.686;2022-10-19T14:34:23;15.55;;;8.40;;
25123;SDS011;13104;51.030;4.686;2022-10-19T14:36:49;18.90;;;9.68;;
25123;SDS011;13104;51.030;4.686;2022-10-19T14:39:30;19.85;;;8.50;;
25123;SDS011;13104;51.030;4.686;2022-10-19T14:41:56;14.85;;;7.80;;
25123;SDS011;13104;51.030;4.686;2022-10-19T14:46:53;21.50;;;8.40;;
25123;SDS011;13104;51.030;4.686;2022-10-19T14:49:19;16.58;;;7.75;;
25123;SDS011;13104;51.030;4.686;2022-10-19T14:51:46;16.00;;;8.57;;
25123;SDS011;13104;51.030;4.686;2022-10-19T14:54:20;15.10;;;7.18;;
25123;SDS011;13104;51.030;4.686;2022-10-19T14:56:54;17.02;;;7.95;;
25123;SDS011;13104;51.030;4.686;2022-10-19T14:59:24;12.57;;;7.63;;
25123;SDS011;13104;51.030;4.686;2022-10-19T15:01:53;18.73;;;7.22;;
25123;SDS011;13104;51.030;4.686;2022-10-19T15:04:23;17.10;;;7.40;;
25123;SDS011;13104;51.030;4.686;2022-10-19T15:06:50;19.08;;;7.30;;
25123;SDS011;13104;51.030;4.686;2022-10-19T15:09:20;16.35;;;7.45;;
25123;SDS011;13104;51.030;4.686;2022-10-19T15:11:48;17.70;;;8.15;;
25123;SDS011;13104;51.030;4.686;2022-10-19T15:14:16;19.55;;;8.18;;
25123;SDS011;13104;51.030;4.686;2022-10-19T15:19:21;17.05;;;7.72;;
25123;SDS011;13104;51.030;4.686;2022-10-19T15:22:04;24.15;;;7.82;;
25123;SDS011;13104;51.030;4.686;2022-10-19T15:24:31;17.40;;;8.43;;
25123;SDS011;13104;51.030;4.686;2022-10-19T15:26:57;16.58;;;8.23;;
25123;SDS011;13104;51.030;4.686;2022-10-19T15:29:27;17.90;;;9.55;;
25123;SDS011;13104;51.030;4.686;2022-10-19T15:31:54;19.90;;;9.02;;
25123;SDS011;13104;51.030;4.686;2022-10-19T15:34:29;17.80;;;9.80;;
25123;SDS011;13104;51.030;4.686;2022-10-19T15:36:56;17.63;;;9.25;;
25123;SDS011;13104;51.030;4.686;2022-10-19T15:39:22;20.20;;;9.23;;
25123;SDS011;13104;51.030;4.686;2022-10-19T15:41:52;19.30;;;9.05;;
25123;SDS011;13104;51.030;4.686;2022-10-19T15:52:13;23.20;;;9.95;;
25123;SDS011;13104;51.030;4.686;2022-10-19T15:54:39;23.88;;;10.43;;
25123;SDS011;13104;51.030;4.686;2022-10-19T15:57:52;22.80;;;10.20;;
25123;SDS011;13104;51.030;4.686;2022-10-19T15:59:54;27.80;;;10.40;;
25123;SDS011;13104;51.030;4.686;2022-10-19T16:02:20;22.10;;;10.52;;
25123;SDS011;13104;51.030;4.686;2022-10-19T16:04:49;21.40;;;10.43;;
25123;SDS011;13104;51.030;4.686;2022-10-19T16:07:16;24.23;;;10.82;;
25123;SDS011;13104;51.030;4.686;2022-10-19T16:09:44;20.92;;;10.75;;
25123;SDS011;13104;51.030;4.686;2022-10-19T16:12:10;29.52;;;11.38;;
25123;SDS011;13104;51.030;4.686;2022-10-19T16:14:36;23.70;;;11.75;;
25123;SDS011;13104;51.030;4.686;2022-10-19T16:17:03;21.45;;;10.88;;
25123;SDS011;13104;51.030;4.686;2022-10-19T16:19:29;28.17;;;11.65;;
25123;SDS011;13104;51.030;4.686;2022-10-19T16:21:55;21.65;;;12.02;;
25123;SDS011;13104;51.030;4.686;2022-10-19T16:24:21;18.88;;;10.52;;
25123;SDS011;13104;51.030;4.686;2022-10-19T16:26:47;24.05;;;11.45;;
25123;SDS011;13104;51.030;4.686;2022-10-19T16:29:13;26.35;;;11.27;;
25123;SDS011;13104;51.030;4.686;2022-10-19T16:31:39;30.02;;;11.88;;
25123;SDS011;13104;51.030;4.686;2022-10-19T16:34:05;22.15;;;11.25;;
25123;SDS011;13104;51.030;4.686;2022-10-19T16:36:32;31.98;;;11.90;;
25123;SDS011;13104;51.030;4.686;2022-10-19T16:39:01;22.77;;;11.88;;
25123;SDS011;13104;51.030;4.686;2022-10-19T16:41:28;28.23;;;12.13;;
25123;SDS011;13104;51.030;4.686;2022-10-19T16:43:54;25.30;;;13.93;;
25123;SDS011;13104;51.030;4.686;2022-10-19T16:46:24;25.80;;;13.43;;
25123;SDS011;13104;51.030;4.686;2022-10-19T16:48:51;27.90;;;13.90;;
25123;SDS011;13104;51.030;4.686;2022-10-19T16:51:21;39.05;;;13.70;;
25123;SDS011;13104;51.030;4.686;2022-10-19T16:54:07;40.80;;;14.45;;
25123;SDS011;13104;51.030;4.686;2022-10-19T16:56:35;27.35;;;14.38;;
25123;SDS011;13104;51.030;4.686;2022-10-19T16:59:06;26.98;;;13.65;;
25123;SDS011;13104;51.030;4.686;2022-10-19T17:01:32;27.10;;;14.13;;